sensor_id;sensor_type;location;lat;lon;timestamp;P1;P2;P0
74333;PMS5003;62753;40.394;-80.022;2023-11-22T00:00:11;1;0;
74333;PMS5003;62753;40.394;-80.022;2023-11-22T00:02:36;0;0;
74333;PMS5003;62753;40.394;-80.022;2023-11-22T00:05:03;0;0;
74333;PMS5003;62753;40.394;-80.022;2023-11-22T00:07:27;0;0;
74333;PMS5003;62753;40.394;-80.022;2023-11-22T00:09:52;0;0;
74333;PMS5003;62753;40.394;-80.022;2023-11-22T00:12:18;0;0;
74333;PMS5003;62753;40.394;-80.022;2023-11-22T00:14:43;1;1;
74333;PMS5003;62753;40.394;-80.022;2023-11-22T00:17:09;0;0;
74333;PMS5003;62753;40.394;-80.022;2023-11-22T00:19:34;0;0;
74333;PMS5003;62753;40.394;-80.022;2023-11-22T00:22:00;0;0;
74333;PMS5003;62753;40.394;-80.022;2023-11-22T00:24:25;0;0;
74333;PMS5003;62753;40.394;-80.022;2023-11-22T00:26:51;0;0;
74333;PMS5003;62753;40.394;-80.022;2023-11-22T00:29:16;1;0;
74333;PMS5003;62753;40.394;-80.022;2023-11-22T00:31:42;3;2;
74333;PMS5003;62753;40.394;-80.022;2023-11-22T00:34:07;1;1;
74333;PMS5003;62753;40.394;-80.022;2023-11-22T00:36:32;1;1;
74333;PMS5003;62753;40.394;-80.022;2023-11-22T00:38:58;3;3;
74333;PMS5003;62753;40.394;-80.022;2023-11-22T00:41:23;1;1;
74333;PMS5003;62753;40.394;-80.022;2023-11-22T00:43:49;2;2;
74333;PMS5003;62753;40.394;-80.022;2023-11-22T00:46:14;1;1;
74333;PMS5003;62753;40.394;-80.022;2023-11-22T00:48:39;0;0;
74333;PMS5003;62753;40.394;-80.022;2023-11-22T00:51:05;0;0;
74333;PMS5003;62753;40.394;-80.022;2023-11-22T00:53:30;0;0;
74333;PMS5003;62753;40.394;-80.022;2023-11-22T00:55:56;1;1;
74333;PMS5003;62753;40.394;-80.022;2023-11-22T00:58:22;3;2;
74333;PMS5003;62753;40.394;-80.022;2023-11-22T01:00:47;1;1;
74333;PMS5003;62753;40.394;-80.022;2023-11-22T01:03:12;2;2;
74333;PMS5003;62753;40.394;-80.022;2023-11-22T01:05:38;0;0;
74333;PMS5003;62753;40.394;-80.022;2023-11-22T01:08:03;2;1;
74333;PMS5003;62753;40.394;-80.022;2023-11-22T01:10:29;0;0;
74333;PMS5003;62753;40.394;-80.022;2023-11-22T01:12:54;1;1;
74333;PMS5003;62753;40.394;-80.022;2023-11-22T01:15:19;0;0;
74333;PMS5003;62753;40.394;-80.022;2023-11-22T01:17:45;2;0;
74333;PMS5003;62753;40.394;-80.022;2023-11-22T01:20:11;2;1;
74333;PMS5003;62753;40.394;-80.022;2023-11-22T01:22:36;0;0;
74333;PMS5003;62753;40.394;-80.022;2023-11-22T01:25:01;1;0;
74333;PMS5003;62753;40.394;-80.022;2023-11-22T01:27:26;0;0;
74333;PMS5003;62753;40.394;-80.022;2023-11-22T01:29:52;2;1;
74333;PMS5003;62753;40.394;-80.022;2023-11-22T01:32:17;1;1;
74333;PMS5003;62753;40.394;-80.022;2023-11-22T01:34:42;1;1;
74333;PMS5003;62753;40.394;-80.022;2023-11-22T01:37:08;2;2;
74333;PMS5003;62753;40.394;-80.022;2023-11-22T01:39:33;1;1;
74333;PMS5003;62753;40.394;-80.022;2023-11-22T01:41:59;0;0;
74333;PMS5003;62753;40.394;-80.022;2023-11-22T01:44:24;1;1;
74333;PMS5003;62753;40.394;-80.022;2023-11-22T01:46:50;0;0;
74333;PMS5003;62753;40.394;-80.022;2023-11-22T01:49:16;1;1;
74333;PMS5003;62753;40.394;-80.022;2023-11-22T01:51:41;2;2;
74333;PMS5003;62753;40.394;-80.022;2023-11-22T01:54:06;1;1;
74333;PMS5003;62753;40.394;-80.022;2023-11-22T01:56:31;2;2;
74333;PMS5003;62753;40.394;-80.022;2023-11-22T01:58:57;1;1;
74333;PMS5003;62753;40.394;-80.022;2023-11-22T02:01:23;1;0;
74333;PMS5003;62753;40.394;-80.022;2023-11-22T02:03:48;0;0;
74333;PMS5003;62753;40.394;-80.022;2023-11-22T02:06:15;1;1;
74333;PMS5003;62753;40.394;-80.022;2023-11-22T02:08:38;2;2;
74333;PMS5003;62753;40.394;-80.022;2023-11-22T02:11:04;2;2;
74333;PMS5003;62753;40.394;-80.022;2023-11-22T02:13:29;2;2;
74333;PMS5003;62753;40.394;-80.022;2023-11-22T02:15:54;2;2;
74333;PMS5003;62753;40.394;-80.022;2023-11-22T02:18:20;2;1;
74333;PMS5003;62753;40.394;-80.022;2023-11-22T02:20:46;2;2;
74333;PMS5003;62753;40.394;-80.022;2023-11-22T02:23:11;3;3;
74333;PMS5003;62753;40.394;-80.022;2023-11-22T02:25:36;2;2;
74333;PMS5003;62753;40.394;-80.022;2023-11-22T02:28:02;1;1;
74333;PMS5003;62753;40.394;-80.022;2023-11-22T02:30:27;4;3;
74333;PMS5003;62753;40.394;-80.022;2023-11-22T02:32:53;3;3;
74333;PMS5003;62753;40.394;-80.022;2023-11-22T02:35:18;3;3;
74333;PMS5003;62753;40.394;-80.022;2023-11-22T02:37:43;3;3;
74333;PMS5003;62753;40.394;-80.022;2023-11-22T02:40:12;3;3;
74333;PMS5003;62753;40.394;-80.022;2023-11-22T02:42:35;3;3;
74333;PMS5003;62753;40.394;-80.022;2023-11-22T02:44:59;5;5;
74333;PMS5003;62753;40.394;-80.022;2023-11-22T02:47:25;4;4;
74333;PMS5003;62753;40.394;-80.022;2023-11-22T02:49:51;4;3;
74333;PMS5003;62753;40.394;-80.022;2023-11-22T02:52:15;5;5;
74333;PMS5003;62753;40.394;-80.022;2023-11-22T02:54:42;3;3;
74333;PMS5003;62753;40.394;-80.022;2023-11-22T02:57:07;4;4;
74333;PMS5003;62753;40.394;-80.022;2023-11-22T02:59:32;4;4;
74333;PMS5003;62753;40.394;-80.022;2023-11-22T03:01:57;5;5;
74333;PMS5003;62753;40.394;-80.022;2023-11-22T03:04:22;5;5;
74333;PMS5003;62753;40.394;-80.022;2023-11-22T03:06:48;4;4;
74333;PMS5003;62753;40.394;-80.022;2023-11-22T03:09:13;6;6;
74333;PMS5003;62753;40.394;-80.022;2023-11-22T03:11:39;4;4;
74333;PMS5003;62753;40.394;-80.022;2023-11-22T03:14:04;4;4;
74333;PMS5003;62753;40.394;-80.022;2023-11-22T03:16:29;5;4;
74333;PMS5003;62753;40.394;-80.022;2023-11-22T03:18:55;3;3;
74333;PMS5003;62753;40.394;-80.022;2023-11-22T03:21:20;5;5;
74333;PMS5003;62753;40.394;-80.022;2023-11-22T03:23:46;6;6;
74333;PMS5003;62753;40.394;-80.022;2023-11-22T03:26:11;5;5;
74333;PMS5003;62753;40.394;-80.022;2023-11-22T03:28:36;7;7;
74333;PMS5003;62753;40.394;-80.022;2023-11-22T03:31:02;8;7;
74333;PMS5003;62753;40.394;-80.022;2023-11-22T03:33:27;7;7;
74333;PMS5003;62753;40.394;-80.022;2023-11-22T03:35:52;7;7;
74333;PMS5003;62753;40.394;-80.022;2023-11-22T03:38:18;7;7;
74333;PMS5003;62753;40.394;-80.022;2023-11-22T03:40:43;8;8;
74333;PMS5003;62753;40.394;-80.022;2023-11-22T03:43:09;8;8;
74333;PMS5003;62753;40.394;-80.022;2023-11-22T03:45:34;12;10;
74333;PMS5003;62753;40.394;-80.022;2023-11-22T03:48:00;8;8;
74333;PMS5003;62753;40.394;-80.022;2023-11-22T03:50:25;9;9;
74333;PMS5003;62753;40.394;-80.022;2023-11-22T03:52:50;11;11;
74333;PMS5003;62753;40.394;-80.022;2023-11-22T03:55:16;12;11;
74333;PMS5003;62753;40.394;-80.022;2023-11-22T03:57:41;11;10;
74333;PMS5003;62753;40.394;-80.022;2023-11-22T04:00:07;8;8;
74333;PMS5003;62753;40.394;-80.022;2023-11-22T04:02:32;10;9;
74333;PMS5003;62753;40.394;-80.022;2023-11-22T04:04:57;13;12;
74333;PMS5003;62753;40.394;-80.022;2023-11-22T04:07:23;11;10;
74333;PMS5003;62753;40.394;-80.022;2023-11-22T04:09:48;12;11;
74333;PMS5003;62753;40.394;-80.022;2023-11-22T04:12:14;11;11;
74333;PMS5003;62753;40.394;-80.022;2023-11-22T04:14:40;11;11;
74333;PMS5003;62753;40.394;-80.022;2023-11-22T04:17:05;13;13;
74333;PMS5003;62753;40.394;-80.022;2023-11-22T04:19:30;14;12;
74333;PMS5003;62753;40.394;-80.022;2023-11-22T04:21:56;12;10;
74333;PMS5003;62753;40.394;-80.022;2023-11-22T04:24:21;13;12;
74333;PMS5003;62753;40.394;-80.022;2023-11-22T04:26:46;18;14;
74333;PMS5003;62753;40.394;-80.022;2023-11-22T04:29:12;15;14;
74333;PMS5003;62753;40.394;-80.022;2023-11-22T04:31:37;12;11;
74333;PMS5003;62753;40.394;-80.022;2023-11-22T04:34:02;16;16;
74333;PMS5003;62753;40.394;-80.022;2023-11-22T04:36:27;15;14;
74333;PMS5003;62753;40.394;-80.022;2023-11-22T04:38:53;13;13;
74333;PMS5003;62753;40.394;-80.022;2023-11-22T04:41:17;15;13;
74333;PMS5003;62753;40.394;-80.022;2023-11-22T04:43:43;20;16;
74333;PMS5003;62753;40.394;-80.022;2023-11-22T04:46:08;16;14;
74333;PMS5003;62753;40.394;-80.022;2023-11-22T04:48:33;15;14;
74333;PMS5003;62753;40.394;-80.022;2023-11-22T04:50:58;13;12;
74333;PMS5003;62753;40.394;-80.022;2023-11-22T04:53:23;14;10;
74333;PMS5003;62753;40.394;-80.022;2023-11-22T04:55:49;13;11;
74333;PMS5003;62753;40.394;-80.022;2023-11-22T04:58:15;12;12;
74333;PMS5003;62753;40.394;-80.022;2023-11-22T05:00:40;12;12;
74333;PMS5003;62753;40.394;-80.022;2023-11-22T05:03:05;11;10;
74333;PMS5003;62753;40.394;-80.022;2023-11-22T05:05:31;16;14;
74333;PMS5003;62753;40.394;-80.022;2023-11-22T05:07:56;12;12;
74333;PMS5003;62753;40.394;-80.022;2023-11-22T05:10:22;12;12;
74333;PMS5003;62753;40.394;-80.022;2023-11-22T05:12:47;14;12;
74333;PMS5003;62753;40.394;-80.022;2023-11-22T05:15:12;14;13;
74333;PMS5003;62753;40.394;-80.022;2023-11-22T05:17:37;15;13;
74333;PMS5003;62753;40.394;-80.022;2023-11-22T05:20:05;16;11;
74333;PMS5003;62753;40.394;-80.022;2023-11-22T05:22:29;16;14;
74333;PMS5003;62753;40.394;-80.022;2023-11-22T05:24:55;14;12;
74333;PMS5003;62753;40.394;-80.022;2023-11-22T05:27:20;13;11;
74333;PMS5003;62753;40.394;-80.022;2023-11-22T05:29:46;12;12;
74333;PMS5003;62753;40.394;-80.022;2023-11-22T05:32:11;17;14;
74333;PMS5003;62753;40.394;-80.022;2023-11-22T05:34:36;11;10;
74333;PMS5003;62753;40.394;-80.022;2023-11-22T05:37:01;15;15;
74333;PMS5003;62753;40.394;-80.022;2023-11-22T05:39:26;18;15;
74333;PMS5003;62753;40.394;-80.022;2023-11-22T05:41:53;16;13;
74333;PMS5003;62753;40.394;-80.022;2023-11-22T05:44:17;16;15;
74333;PMS5003;62753;40.394;-80.022;2023-11-22T05:46:42;17;16;
74333;PMS5003;62753;40.394;-80.022;2023-11-22T05:49:08;13;12;
74333;PMS5003;62753;40.394;-80.022;2023-11-22T05:51:33;13;13;
74333;PMS5003;62753;40.394;-80.022;2023-11-22T05:53:58;14;14;
74333;PMS5003;62753;40.394;-80.022;2023-11-22T05:56:24;16;16;
74333;PMS5003;62753;40.394;-80.022;2023-11-22T05:58:49;17;16;
74333;PMS5003;62753;40.394;-80.022;2023-11-22T06:01:14;19;17;
74333;PMS5003;62753;40.394;-80.022;2023-11-22T06:03:39;16;15;
74333;PMS5003;62753;40.394;-80.022;2023-11-22T06:06:05;15;15;
74333;PMS5003;62753;40.394;-80.022;2023-11-22T06:08:29;16;16;
74333;PMS5003;62753;40.394;-80.022;2023-11-22T06:10:55;16;15;
74333;PMS5003;62753;40.394;-80.022;2023-11-22T06:13:20;21;17;
74333;PMS5003;62753;40.394;-80.022;2023-11-22T06:15:45;16;15;
74333;PMS5003;62753;40.394;-80.022;2023-11-22T06:18:10;15;14;
74333;PMS5003;62753;40.394;-80.022;2023-11-22T06:20:36;22;17;
74333;PMS5003;62753;40.394;-80.022;2023-11-22T06:23:02;15;15;
74333;PMS5003;62753;40.394;-80.022;2023-11-22T06:25:27;13;11;
74333;PMS5003;62753;40.394;-80.022;2023-11-22T06:27:52;18;14;
74333;PMS5003;62753;40.394;-80.022;2023-11-22T06:30:18;11;10;
74333;PMS5003;62753;40.394;-80.022;2023-11-22T06:32:43;13;13;
74333;PMS5003;62753;40.394;-80.022;2023-11-22T06:35:08;14;12;
74333;PMS5003;62753;40.394;-80.022;2023-11-22T06:37:34;10;10;
74333;PMS5003;62753;40.394;-80.022;2023-11-22T06:39:59;14;10;
74333;PMS5003;62753;40.394;-80.022;2023-11-22T06:42:24;17;15;
74333;PMS5003;62753;40.394;-80.022;2023-11-22T06:44:50;18;15;
74333;PMS5003;62753;40.394;-80.022;2023-11-22T06:47:15;18;17;
74333;PMS5003;62753;40.394;-80.022;2023-11-22T06:49:41;15;13;
74333;PMS5003;62753;40.394;-80.022;2023-11-22T06:52:06;16;14;
74333;PMS5003;62753;40.394;-80.022;2023-11-22T06:54:32;16;14;
74333;PMS5003;62753;40.394;-80.022;2023-11-22T06:56:57;13;11;
74333;PMS5003;62753;40.394;-80.022;2023-11-22T06:59:22;10;10;
74333;PMS5003;62753;40.394;-80.022;2023-11-22T07:01:48;14;13;
74333;PMS5003;62753;40.394;-80.022;2023-11-22T07:04:13;19;15;
74333;PMS5003;62753;40.394;-80.022;2023-11-22T07:06:38;12;12;
74333;PMS5003;62753;40.394;-80.022;2023-11-22T07:09:03;11;10;
74333;PMS5003;62753;40.394;-80.022;2023-11-22T07:11:29;10;10;
74333;PMS5003;62753;40.394;-80.022;2023-11-22T07:13:54;9;9;
74333;PMS5003;62753;40.394;-80.022;2023-11-22T07:16:20;12;11;
74333;PMS5003;62753;40.394;-80.022;2023-11-22T07:18:45;8;8;
74333;PMS5003;62753;40.394;-80.022;2023-11-22T07:21:10;8;7;
74333;PMS5003;62753;40.394;-80.022;2023-11-22T07:23:36;9;9;
74333;PMS5003;62753;40.394;-80.022;2023-11-22T07:26:01;11;10;
74333;PMS5003;62753;40.394;-80.022;2023-11-22T07:28:26;10;10;
74333;PMS5003;62753;40.394;-80.022;2023-11-22T07:30:51;8;7;
74333;PMS5003;62753;40.394;-80.022;2023-11-22T07:33:17;9;8;
74333;PMS5003;62753;40.394;-80.022;2023-11-22T07:35:42;7;7;
74333;PMS5003;62753;40.394;-80.022;2023-11-22T07:38:07;7;7;
74333;PMS5003;62753;40.394;-80.022;2023-11-22T07:40:33;8;8;
74333;PMS5003;62753;40.394;-80.022;2023-11-22T07:42:59;7;6;
74333;PMS5003;62753;40.394;-80.022;2023-11-22T07:45:23;9;5;
74333;PMS5003;62753;40.394;-80.022;2023-11-22T07:47:49;8;8;
74333;PMS5003;62753;40.394;-80.022;2023-11-22T07:50:14;6;6;
74333;PMS5003;62753;40.394;-80.022;2023-11-22T07:52:39;7;7;
74333;PMS5003;62753;40.394;-80.022;2023-11-22T07:55:05;7;6;
74333;PMS5003;62753;40.394;-80.022;2023-11-22T07:57:30;10;9;
74333;PMS5003;62753;40.394;-80.022;2023-11-22T07:59:56;8;6;
74333;PMS5003;62753;40.394;-80.022;2023-11-22T08:02:21;8;8;
74333;PMS5003;62753;40.394;-80.022;2023-11-22T08:04:46;8;8;
74333;PMS5003;62753;40.394;-80.022;2023-11-22T08:07:12;9;7;
74333;PMS5003;62753;40.394;-80.022;2023-11-22T08:09:37;6;6;
74333;PMS5003;62753;40.394;-80.022;2023-11-22T08:12:03;9;9;
74333;PMS5003;62753;40.394;-80.022;2023-11-22T08:14:28;10;9;
74333;PMS5003;62753;40.394;-80.022;2023-11-22T08:16:53;8;7;
74333;PMS5003;62753;40.394;-80.022;2023-11-22T08:19:19;8;8;
74333;PMS5003;62753;40.394;-80.022;2023-11-22T08:21:44;9;8;
74333;PMS5003;62753;40.394;-80.022;2023-11-22T08:24:10;9;9;
74333;PMS5003;62753;40.394;-80.022;2023-11-22T08:26:35;15;11;
74333;PMS5003;62753;40.394;-80.022;2023-11-22T08:29:00;7;7;
74333;PMS5003;62753;40.394;-80.022;2023-11-22T08:31:26;10;9;
74333;PMS5003;62753;40.394;-80.022;2023-11-22T08:33:51;11;10;
74333;PMS5003;62753;40.394;-80.022;2023-11-22T08:36:16;10;8;
74333;PMS5003;62753;40.394;-80.022;2023-11-22T08:38:42;8;7;
74333;PMS5003;62753;40.394;-80.022;2023-11-22T08:41:07;10;9;
74333;PMS5003;62753;40.394;-80.022;2023-11-22T08:43:33;9;7;
74333;PMS5003;62753;40.394;-80.022;2023-11-22T08:45:58;10;10;
74333;PMS5003;62753;40.394;-80.022;2023-11-22T08:48:23;9;7;
74333;PMS5003;62753;40.394;-80.022;2023-11-22T08:50:48;9;9;
74333;PMS5003;62753;40.394;-80.022;2023-11-22T08:53:14;9;8;
74333;PMS5003;62753;40.394;-80.022;2023-11-22T08:55:39;8;8;
74333;PMS5003;62753;40.394;-80.022;2023-11-22T08:58:04;10;10;
74333;PMS5003;62753;40.394;-80.022;2023-11-22T09:00:31;11;11;
74333;PMS5003;62753;40.394;-80.022;2023-11-22T09:02:55;10;9;
74333;PMS5003;62753;40.394;-80.022;2023-11-22T09:05:20;11;11;
74333;PMS5003;62753;40.394;-80.022;2023-11-22T09:07:46;11;11;
74333;PMS5003;62753;40.394;-80.022;2023-11-22T09:10:11;12;12;
74333;PMS5003;62753;40.394;-80.022;2023-11-22T09:12:37;12;10;
74333;PMS5003;62753;40.394;-80.022;2023-11-22T09:15:02;14;13;
74333;PMS5003;62753;40.394;-80.022;2023-11-22T09:17:27;16;15;
74333;PMS5003;62753;40.394;-80.022;2023-11-22T09:19:52;15;13;
74333;PMS5003;62753;40.394;-80.022;2023-11-22T09:22:17;12;12;
74333;PMS5003;62753;40.394;-80.022;2023-11-22T09:24:42;12;12;
74333;PMS5003;62753;40.394;-80.022;2023-11-22T09:27:08;20;17;
74333;PMS5003;62753;40.394;-80.022;2023-11-22T09:29:34;16;14;
74333;PMS5003;62753;40.394;-80.022;2023-11-22T09:32:00;13;12;
74333;PMS5003;62753;40.394;-80.022;2023-11-22T09:34:26;20;17;
74333;PMS5003;62753;40.394;-80.022;2023-11-22T09:36:50;19;14;
74333;PMS5003;62753;40.394;-80.022;2023-11-22T09:39:16;16;15;
74333;PMS5003;62753;40.394;-80.022;2023-11-22T09:41:41;17;16;
74333;PMS5003;62753;40.394;-80.022;2023-11-22T09:44:07;24;20;
74333;PMS5003;62753;40.394;-80.022;2023-11-22T09:46:32;20;17;
74333;PMS5003;62753;40.394;-80.022;2023-11-22T09:48:58;19;17;
74333;PMS5003;62753;40.394;-80.022;2023-11-22T09:51:24;22;21;
74333;PMS5003;62753;40.394;-80.022;2023-11-22T09:53:52;23;22;
74333;PMS5003;62753;40.394;-80.022;2023-11-22T09:56:14;23;20;
74333;PMS5003;62753;40.394;-80.022;2023-11-22T09:58:40;21;19;
74333;PMS5003;62753;40.394;-80.022;2023-11-22T10:01:05;21;19;
74333;PMS5003;62753;40.394;-80.022;2023-11-22T10:03:31;24;22;
74333;PMS5003;62753;40.394;-80.022;2023-11-22T10:05:56;24;20;
74333;PMS5003;62753;40.394;-80.022;2023-11-22T10:08:21;22;20;
74333;PMS5003;62753;40.394;-80.022;2023-11-22T10:10:46;19;19;
74333;PMS5003;62753;40.394;-80.022;2023-11-22T10:13:12;24;21;
74333;PMS5003;62753;40.394;-80.022;2023-11-22T10:15:38;27;22;
74333;PMS5003;62753;40.394;-80.022;2023-11-22T10:18:04;23;20;
74333;PMS5003;62753;40.394;-80.022;2023-11-22T10:22:55;23;18;
74333;PMS5003;62753;40.394;-80.022;2023-11-22T10:25:21;25;20;
74333;PMS5003;62753;40.394;-80.022;2023-11-22T10:27:46;28;26;
74333;PMS5003;62753;40.394;-80.022;2023-11-22T10:30:16;29;23;
74333;PMS5003;62753;40.394;-80.022;2023-11-22T10:32:37;27;25;
74333;PMS5003;62753;40.394;-80.022;2023-11-22T10:35:02;29;22;
74333;PMS5003;62753;40.394;-80.022;2023-11-22T10:37:27;25;24;
74333;PMS5003;62753;40.394;-80.022;2023-11-22T10:39:53;29;23;
74333;PMS5003;62753;40.394;-80.022;2023-11-22T10:42:23;25;23;
74333;PMS5003;62753;40.394;-80.022;2023-11-22T10:44:44;23;21;
74333;PMS5003;62753;40.394;-80.022;2023-11-22T10:47:09;24;23;
74333;PMS5003;62753;40.394;-80.022;2023-11-22T10:49:34;32;31;
74333;PMS5003;62753;40.394;-80.022;2023-11-22T10:52:01;30;22;
74333;PMS5003;62753;40.394;-80.022;2023-11-22T10:54:26;25;22;
74333;PMS5003;62753;40.394;-80.022;2023-11-22T10:56:54;28;21;
74333;PMS5003;62753;40.394;-80.022;2023-11-22T10:59:18;28;24;
74333;PMS5003;62753;40.394;-80.022;2023-11-22T11:01:44;29;24;
74333;PMS5003;62753;40.394;-80.022;2023-11-22T11:04:09;22;21;
74333;PMS5003;62753;40.394;-80.022;2023-11-22T11:06:35;29;25;
74333;PMS5003;62753;40.394;-80.022;2023-11-22T11:09:00;28;26;
74333;PMS5003;62753;40.394;-80.022;2023-11-22T11:11:25;31;24;
74333;PMS5003;62753;40.394;-80.022;2023-11-22T11:13:52;26;25;
74333;PMS5003;62753;40.394;-80.022;2023-11-22T11:16:16;29;25;
74333;PMS5003;62753;40.394;-80.022;2023-11-22T11:18:42;28;27;
74333;PMS5003;62753;40.394;-80.022;2023-11-22T11:21:08;26;25;
74333;PMS5003;62753;40.394;-80.022;2023-11-22T11:23:32;34;27;
74333;PMS5003;62753;40.394;-80.022;2023-11-22T11:25:58;27;23;
74333;PMS5003;62753;40.394;-80.022;2023-11-22T11:28:23;29;24;
74333;PMS5003;62753;40.394;-80.022;2023-11-22T11:30:49;32;26;
74333;PMS5003;62753;40.394;-80.022;2023-11-22T11:33:15;28;23;
74333;PMS5003;62753;40.394;-80.022;2023-11-22T11:35:42;33;24;
74333;PMS5003;62753;40.394;-80.022;2023-11-22T11:38:05;28;24;
74333;PMS5003;62753;40.394;-80.022;2023-11-22T11:40:31;31;25;
74333;PMS5003;62753;40.394;-80.022;2023-11-22T11:42:56;28;25;
74333;PMS5003;62753;40.394;-80.022;2023-11-22T11:45:27;32;26;
74333;PMS5003;62753;40.394;-80.022;2023-11-22T11:47:46;34;28;
74333;PMS5003;62753;40.394;-80.022;2023-11-22T11:50:12;30;25;
74333;PMS5003;62753;40.394;-80.022;2023-11-22T11:52:38;34;25;
74333;PMS5003;62753;40.394;-80.022;2023-11-22T11:55:03;27;22;
74333;PMS5003;62753;40.394;-80.022;2023-11-22T11:57:30;25;22;
74333;PMS5003;62753;40.394;-80.022;2023-11-22T11:59:53;24;23;
74333;PMS5003;62753;40.394;-80.022;2023-11-22T12:02:19;31;25;
74333;PMS5003;62753;40.394;-80.022;2023-11-22T12:04:44;27;22;
74333;PMS5003;62753;40.394;-80.022;2023-11-22T12:07:11;33;25;
74333;PMS5003;62753;40.394;-80.022;2023-11-22T12:09:35;36;28;
74333;PMS5003;62753;40.394;-80.022;2023-11-22T12:12:01;27;24;
74333;PMS5003;62753;40.394;-80.022;2023-11-22T12:14:26;37;29;
74333;PMS5003;62753;40.394;-80.022;2023-11-22T12:16:52;24;22;
74333;PMS5003;62753;40.394;-80.022;2023-11-22T12:19:21;27;26;
74333;PMS5003;62753;40.394;-80.022;2023-11-22T12:21:43;29;26;
74333;PMS5003;62753;40.394;-80.022;2023-11-22T12:24:09;32;26;
74333;PMS5003;62753;40.394;-80.022;2023-11-22T12:26:34;32;24;
74333;PMS5003;62753;40.394;-80.022;2023-11-22T12:29:00;32;27;
74333;PMS5003;62753;40.394;-80.022;2023-11-22T12:31:26;25;24;
74333;PMS5003;62753;40.394;-80.022;2023-11-22T12:33:51;31;25;
74333;PMS5003;62753;40.394;-80.022;2023-11-22T12:36:17;28;23;
74333;PMS5003;62753;40.394;-80.022;2023-11-22T12:38:42;25;21;
74333;PMS5003;62753;40.394;-80.022;2023-11-22T12:41:08;32;25;
74333;PMS5003;62753;40.394;-80.022;2023-11-22T12:43:33;24;23;
74333;PMS5003;62753;40.394;-80.022;2023-11-22T12:45:59;33;28;
74333;PMS5003;62753;40.394;-80.022;2023-11-22T12:48:25;32;26;
74333;PMS5003;62753;40.394;-80.022;2023-11-22T12:50:50;35;29;
74333;PMS5003;62753;40.394;-80.022;2023-11-22T12:53:20;33;26;
74333;PMS5003;62753;40.394;-80.022;2023-11-22T12:55:41;34;27;
74333;PMS5003;62753;40.394;-80.022;2023-11-22T12:58:05;26;22;
74333;PMS5003;62753;40.394;-80.022;2023-11-22T13:00:31;29;24;
74333;PMS5003;62753;40.394;-80.022;2023-11-22T13:02:58;35;26;
74333;PMS5003;62753;40.394;-80.022;2023-11-22T13:05:21;21;17;
74333;PMS5003;62753;40.394;-80.022;2023-11-22T13:07:47;25;23;
74333;PMS5003;62753;40.394;-80.022;2023-11-22T13:10:13;22;21;
74333;PMS5003;62753;40.394;-80.022;2023-11-22T13:12:38;28;23;
74333;PMS5003;62753;40.394;-80.022;2023-11-22T13:15:08;23;20;
74333;PMS5003;62753;40.394;-80.022;2023-11-22T13:17:29;27;22;
74333;PMS5003;62753;40.394;-80.022;2023-11-22T13:19:55;25;20;
74333;PMS5003;62753;40.394;-80.022;2023-11-22T13:22:20;21;19;
74333;PMS5003;62753;40.394;-80.022;2023-11-22T13:24:46;24;21;
74333;PMS5003;62753;40.394;-80.022;2023-11-22T13:27:11;22;18;
74333;PMS5003;62753;40.394;-80.022;2023-11-22T13:29:36;19;18;
74333;PMS5003;62753;40.394;-80.022;2023-11-22T13:32:02;26;24;
74333;PMS5003;62753;40.394;-80.022;2023-11-22T13:34:27;24;22;
74333;PMS5003;62753;40.394;-80.022;2023-11-22T13:36:53;23;19;
74333;PMS5003;62753;40.394;-80.022;2023-11-22T13:39:18;21;17;
74333;PMS5003;62753;40.394;-80.022;2023-11-22T13:41:44;23;20;
74333;PMS5003;62753;40.394;-80.022;2023-11-22T13:44:10;22;18;
74333;PMS5003;62753;40.394;-80.022;2023-11-22T13:46:35;20;19;
74333;PMS5003;62753;40.394;-80.022;2023-11-22T13:49:01;20;19;
74333;PMS5003;62753;40.394;-80.022;2023-11-22T13:51:26;17;16;
74333;PMS5003;62753;40.394;-80.022;2023-11-22T13:53:51;20;16;
74333;PMS5003;62753;40.394;-80.022;2023-11-22T13:56:16;19;18;
74333;PMS5003;62753;40.394;-80.022;2023-11-22T13:58:42;19;17;
74333;PMS5003;62753;40.394;-80.022;2023-11-22T14:01:07;18;15;
74333;PMS5003;62753;40.394;-80.022;2023-11-22T14:03:33;17;15;
74333;PMS5003;62753;40.394;-80.022;2023-11-22T14:05:58;19;16;
74333;PMS5003;62753;40.394;-80.022;2023-11-22T14:08:24;19;17;
74333;PMS5003;62753;40.394;-80.022;2023-11-22T14:10:49;17;14;
74333;PMS5003;62753;40.394;-80.022;2023-11-22T14:13:14;15;14;
74333;PMS5003;62753;40.394;-80.022;2023-11-22T14:15:40;14;13;
74333;PMS5003;62753;40.394;-80.022;2023-11-22T14:18:05;15;13;
74333;PMS5003;62753;40.394;-80.022;2023-11-22T14:20:30;13;11;
74333;PMS5003;62753;40.394;-80.022;2023-11-22T14:22:55;13;13;
74333;PMS5003;62753;40.394;-80.022;2023-11-22T14:25:20;15;12;
74333;PMS5003;62753;40.394;-80.022;2023-11-22T14:27:46;14;14;
74333;PMS5003;62753;40.394;-80.022;2023-11-22T14:30:13;13;12;
74333;PMS5003;62753;40.394;-80.022;2023-11-22T14:32:37;16;14;
74333;PMS5003;62753;40.394;-80.022;2023-11-22T14:35:02;21;15;
74333;PMS5003;62753;40.394;-80.022;2023-11-22T14:37:28;14;13;
74333;PMS5003;62753;40.394;-80.022;2023-11-22T14:39:53;21;14;
74333;PMS5003;62753;40.394;-80.022;2023-11-22T14:42:19;11;10;
74333;PMS5003;62753;40.394;-80.022;2023-11-22T14:44:44;14;13;
74333;PMS5003;62753;40.394;-80.022;2023-11-22T14:47:10;14;13;
74333;PMS5003;62753;40.394;-80.022;2023-11-22T14:49:35;12;11;
74333;PMS5003;62753;40.394;-80.022;2023-11-22T14:52:01;15;14;
74333;PMS5003;62753;40.394;-80.022;2023-11-22T14:54:26;12;12;
74333;PMS5003;62753;40.394;-80.022;2023-11-22T14:56:52;10;9;
74333;PMS5003;62753;40.394;-80.022;2023-11-22T14:59:17;10;10;
74333;PMS5003;62753;40.394;-80.022;2023-11-22T15:01:43;10;10;
74333;PMS5003;62753;40.394;-80.022;2023-11-22T15:04:08;13;12;
74333;PMS5003;62753;40.394;-80.022;2023-11-22T15:06:33;10;9;
74333;PMS5003;62753;40.394;-80.022;2023-11-22T15:08:59;12;11;
74333;PMS5003;62753;40.394;-80.022;2023-11-22T15:11:24;12;11;
74333;PMS5003;62753;40.394;-80.022;2023-11-22T15:13:49;11;10;
74333;PMS5003;62753;40.394;-80.022;2023-11-22T15:16:15;9;9;
74333;PMS5003;62753;40.394;-80.022;2023-11-22T15:18:40;8;8;
74333;PMS5003;62753;40.394;-80.022;2023-11-22T15:21:06;8;8;
74333;PMS5003;62753;40.394;-80.022;2023-11-22T15:23:31;8;8;
74333;PMS5003;62753;40.394;-80.022;2023-11-22T15:25:57;7;7;
74333;PMS5003;62753;40.394;-80.022;2023-11-22T15:28:22;8;8;
74333;PMS5003;62753;40.394;-80.022;2023-11-22T15:30:48;12;9;
74333;PMS5003;62753;40.394;-80.022;2023-11-22T15:33:13;9;8;
74333;PMS5003;62753;40.394;-80.022;2023-11-22T15:35:39;7;7;
74333;PMS5003;62753;40.394;-80.022;2023-11-22T15:38:04;9;9;
74333;PMS5003;62753;40.394;-80.022;2023-11-22T15:40:29;7;7;
74333;PMS5003;62753;40.394;-80.022;2023-11-22T15:42:55;10;9;
74333;PMS5003;62753;40.394;-80.022;2023-11-22T15:45:20;7;7;